sensor_id;sensor_type;location;lat;lon;timestamp;temperature;humidity
40996;DHT22;26723;57.478;12.066;2023-07-29T00:02:42;14.10;99.90
40996;DHT22;26723;57.478;12.066;2023-07-29T00:05:51;14.10;99.90
40996;DHT22;26723;57.478;12.066;2023-07-29T00:08:59;14.10;99.90
40996;DHT22;26723;57.478;12.066;2023-07-29T00:12:09;14.00;99.90
40996;DHT22;26723;57.478;12.066;2023-07-29T00:15:17;13.90;99.90
40996;DHT22;26723;57.478;12.066;2023-07-29T00:18:26;13.90;99.90
40996;DHT22;26723;57.478;12.066;2023-07-29T00:21:34;13.90;99.90
40996;DHT22;26723;57.478;12.066;2023-07-29T00:24:43;13.90;99.90
40996;DHT22;26723;57.478;12.066;2023-07-29T00:27:55;13.80;99.90
40996;DHT22;26723;57.478;12.066;2023-07-29T00:31:05;13.90;99.90
40996;DHT22;26723;57.478;12.066;2023-07-29T00:34:14;13.80;99.90
40996;DHT22;26723;57.478;12.066;2023-07-29T00:37:27;13.80;99.90
40996;DHT22;26723;57.478;12.066;2023-07-29T00:40:36;13.80;99.90
40996;DHT22;26723;57.478;12.066;2023-07-29T00:43:46;13.90;99.90
40996;DHT22;26723;57.478;12.066;2023-07-29T00:46:55;13.90;99.90
40996;DHT22;26723;57.478;12.066;2023-07-29T00:50:04;13.90;99.90
40996;DHT22;26723;57.478;12.066;2023-07-29T00:53:13;13.90;99.90
40996;DHT22;26723;57.478;12.066;2023-07-29T00:56:22;13.90;99.90
40996;DHT22;26723;57.478;12.066;2023-07-29T00:59:32;13.90;99.90
40996;DHT22;26723;57.478;12.066;2023-07-29T01:02:42;13.90;99.90
40996;DHT22;26723;57.478;12.066;2023-07-29T01:06:05;13.70;99.90
40996;DHT22;26723;57.478;12.066;2023-07-29T01:09:22;13.80;99.90
40996;DHT22;26723;57.478;12.066;2023-07-29T01:12:37;13.90;99.90
40996;DHT22;26723;57.478;12.066;2023-07-29T01:15:54;13.80;99.90
40996;DHT22;26723;57.478;12.066;2023-07-29T01:19:06;13.70;99.90
40996;DHT22;26723;57.478;12.066;2023-07-29T01:22:16;13.70;99.90
40996;DHT22;26723;57.478;12.066;2023-07-29T01:25:27;13.60;99.90
40996;DHT22;26723;57.478;12.066;2023-07-29T01:28:36;13.50;99.90
40996;DHT22;26723;57.478;12.066;2023-07-29T01:31:46;13.40;99.90
40996;DHT22;26723;57.478;12.066;2023-07-29T01:35:00;13.50;99.90
40996;DHT22;26723;57.478;12.066;2023-07-29T01:38:14;13.50;99.90
40996;DHT22;26723;57.478;12.066;2023-07-29T01:41:26;13.60;99.90
40996;DHT22;26723;57.478;12.066;2023-07-29T01:44:36;13.60;99.90
40996;DHT22;26723;57.478;12.066;2023-07-29T01:47:44;13.60;99.90
40996;DHT22;26723;57.478;12.066;2023-07-29T01:50:54;13.60;99.90
40996;DHT22;26723;57.478;12.066;2023-07-29T01:54:03;13.70;99.90
40996;DHT22;26723;57.478;12.066;2023-07-29T01:57:13;13.70;99.90
40996;DHT22;26723;57.478;12.066;2023-07-29T02:00:22;13.70;99.90
40996;DHT22;26723;57.478;12.066;2023-07-29T02:03:30;13.70;99.90
40996;DHT22;26723;57.478;12.066;2023-07-29T02:06:38;13.70;99.90
40996;DHT22;26723;57.478;12.066;2023-07-29T02:09:47;13.70;99.90
40996;DHT22;26723;57.478;12.066;2023-07-29T02:12:57;13.60;99.90
40996;DHT22;26723;57.478;12.066;2023-07-29T02:16:05;13.50;99.90
40996;DHT22;26723;57.478;12.066;2023-07-29T02:19:13;13.50;99.90
40996;DHT22;26723;57.478;12.066;2023-07-29T02:22:22;13.50;99.90
40996;DHT22;26723;57.478;12.066;2023-07-29T02:25:30;13.50;99.90
40996;DHT22;26723;57.478;12.066;2023-07-29T02:28:40;13.40;99.90
40996;DHT22;26723;57.478;12.066;2023-07-29T02:31:49;13.40;99.90
40996;DHT22;26723;57.478;12.066;2023-07-29T02:34:57;13.40;99.90
40996;DHT22;26723;57.478;12.066;2023-07-29T02:38:06;13.30;99.90
40996;DHT22;26723;57.478;12.066;2023-07-29T02:41:14;13.30;99.90
40996;DHT22;26723;57.478;12.066;2023-07-29T02:44:24;13.30;99.90
40996;DHT22;26723;57.478;12.066;2023-07-29T02:47:33;13.20;99.90
40996;DHT22;26723;57.478;12.066;2023-07-29T02:50:41;13.20;99.90
40996;DHT22;26723;57.478;12.066;2023-07-29T02:53:50;13.20;99.90
40996;DHT22;26723;57.478;12.066;2023-07-29T02:56:59;13.20;99.90
40996;DHT22;26723;57.478;12.066;2023-07-29T03:00:10;13.30;99.90
40996;DHT22;26723;57.478;12.066;2023-07-29T03:03:19;13.30;99.90
40996;DHT22;26723;57.478;12.066;2023-07-29T03:06:28;13.40;99.90
40996;DHT22;26723;57.478;12.066;2023-07-29T03:09:36;13.40;99.90
40996;DHT22;26723;57.478;12.066;2023-07-29T03:12:45;13.30;99.90
40996;DHT22;26723;57.478;12.066;2023-07-29T03:16:04;13.20;99.90
40996;DHT22;26723;57.478;12.066;2023-07-29T03:19:13;13.10;99.90
40996;DHT22;26723;57.478;12.066;2023-07-29T03:22:21;13.10;99.90
40996;DHT22;26723;57.478;12.066;2023-07-29T03:25:30;13.20;99.90
40996;DHT22;26723;57.478;12.066;2023-07-29T03:28:40;13.30;99.90
40996;DHT22;26723;57.478;12.066;2023-07-29T03:31:50;13.40;99.90
40996;DHT22;26723;57.478;12.066;2023-07-29T03:34:58;13.40;99.90
40996;DHT22;26723;57.478;12.066;2023-07-29T03:38:07;13.40;99.90
40996;DHT22;26723;57.478;12.066;2023-07-29T03:41:15;13.50;99.90
40996;DHT22;26723;57.478;12.066;2023-07-29T03:44:24;13.40;99.90
40996;DHT22;26723;57.478;12.066;2023-07-29T03:47:34;13.40;99.90
40996;DHT22;26723;57.478;12.066;2023-07-29T03:50:42;13.40;99.90
40996;DHT22;26723;57.478;12.066;2023-07-29T03:53:51;13.50;99.90
40996;DHT22;26723;57.478;12.066;2023-07-29T03:56:59;13.60;99.90
40996;DHT22;26723;57.478;12.066;2023-07-29T04:00:08;13.60;99.90
40996;DHT22;26723;57.478;12.066;2023-07-29T04:03:27;13.70;99.90
40996;DHT22;26723;57.478;12.066;2023-07-29T04:06:36;13.60;99.90
40996;DHT22;26723;57.478;12.066;2023-07-29T04:09:45;13.60;99.90
40996;DHT22;26723;57.478;12.066;2023-07-29T04:12:54;13.60;99.90
40996;DHT22;26723;57.478;12.066;2023-07-29T04:16:02;13.60;99.90
40996;DHT22;26723;57.478;12.066;2023-07-29T04:19:12;13.70;99.90
40996;DHT22;26723;57.478;12.066;2023-07-29T04:22:21;13.80;99.90
40996;DHT22;26723;57.478;12.066;2023-07-29T04:25:29;13.90;99.90
40996;DHT22;26723;57.478;12.066;2023-07-29T04:28:38;13.90;99.90
40996;DHT22;26723;57.478;12.066;2023-07-29T04:31:46;14.00;99.90
40996;DHT22;26723;57.478;12.066;2023-07-29T04:34:56;14.00;99.90
40996;DHT22;26723;57.478;12.066;2023-07-29T04:38:04;14.10;99.90
40996;DHT22;26723;57.478;12.066;2023-07-29T04:41:13;14.10;99.90
40996;DHT22;26723;57.478;12.066;2023-07-29T04:44:21;14.20;99.90
40996;DHT22;26723;57.478;12.066;2023-07-29T04:47:30;14.20;99.90
40996;DHT22;26723;57.478;12.066;2023-07-29T04:50:39;14.20;99.90
40996;DHT22;26723;57.478;12.066;2023-07-29T04:53:48;14.20;99.90
40996;DHT22;26723;57.478;12.066;2023-07-29T04:56:56;14.30;99.90
40996;DHT22;26723;57.478;12.066;2023-07-29T05:00:06;14.40;99.90
40996;DHT22;26723;57.478;12.066;2023-07-29T05:03:14;14.60;99.90
40996;DHT22;26723;57.478;12.066;2023-07-29T05:06:24;14.70;99.90
40996;DHT22;26723;57.478;12.066;2023-07-29T05:09:33;14.70;99.90
40996;DHT22;26723;57.478;12.066;2023-07-29T05:12:41;15.00;99.90
40996;DHT22;26723;57.478;12.066;2023-07-29T05:15:50;15.20;99.90
40996;DHT22;26723;57.478;12.066;2023-07-29T05:18:59;15.40;99.90
40996;DHT22;26723;57.478;12.066;2023-07-29T05:22:09;15.60;99.90
40996;DHT22;26723;57.478;12.066;2023-07-29T05:25:18;15.80;99.90
40996;DHT22;26723;57.478;12.066;2023-07-29T05:28:26;15.90;99.90
40996;DHT22;26723;57.478;12.066;2023-07-29T05:31:35;16.00;99.90
40996;DHT22;26723;57.478;12.066;2023-07-29T05:34:43;16.00;99.90
40996;DHT22;26723;57.478;12.066;2023-07-29T05:37:53;16.00;99.90
40996;DHT22;26723;57.478;12.066;2023-07-29T05:41:02;16.10;99.90
40996;DHT22;26723;57.478;12.066;2023-07-29T05:44:10;16.20;99.90
40996;DHT22;26723;57.478;12.066;2023-07-29T05:47:18;16.20;99.90
40996;DHT22;26723;57.478;12.066;2023-07-29T05:50:27;16.30;99.90
40996;DHT22;26723;57.478;12.066;2023-07-29T05:53:36;16.20;99.90
40996;DHT22;26723;57.478;12.066;2023-07-29T05:56:45;16.30;99.90
40996;DHT22;26723;57.478;12.066;2023-07-29T05:59:53;16.20;99.90
40996;DHT22;26723;57.478;12.066;2023-07-29T06:03:02;16.20;99.90
40996;DHT22;26723;57.478;12.066;2023-07-29T06:06:10;16.30;99.90
40996;DHT22;26723;57.478;12.066;2023-07-29T06:09:20;16.50;99.90
40996;DHT22;26723;57.478;12.066;2023-07-29T06:12:29;16.60;99.90
40996;DHT22;26723;57.478;12.066;2023-07-29T06:15:37;16.60;99.90
40996;DHT22;26723;57.478;12.066;2023-07-29T06:18:46;16.80;99.90
40996;DHT22;26723;57.478;12.066;2023-07-29T06:21:56;16.90;99.90
40996;DHT22;26723;57.478;12.066;2023-07-29T06:25:06;17.00;99.90
40996;DHT22;26723;57.478;12.066;2023-07-29T06:28:14;17.20;99.90
40996;DHT22;26723;57.478;12.066;2023-07-29T06:31:23;17.40;99.90
40996;DHT22;26723;57.478;12.066;2023-07-29T06:34:31;17.50;99.90
40996;DHT22;26723;57.478;12.066;2023-07-29T06:37:39;17.50;99.90
40996;DHT22;26723;57.478;12.066;2023-07-29T06:40:49;17.40;99.90
40996;DHT22;26723;57.478;12.066;2023-07-29T06:43:58;17.40;99.90
40996;DHT22;26723;57.478;12.066;2023-07-29T06:47:06;17.40;99.90
40996;DHT22;26723;57.478;12.066;2023-07-29T06:50:14;17.40;99.90
40996;DHT22;26723;57.478;12.066;2023-07-29T06:53:23;17.40;99.90
40996;DHT22;26723;57.478;12.066;2023-07-29T06:56:33;17.40;99.90
40996;DHT22;26723;57.478;12.066;2023-07-29T06:59:42;17.60;99.90
40996;DHT22;26723;57.478;12.066;2023-07-29T07:02:50;17.80;99.90
40996;DHT22;26723;57.478;12.066;2023-07-29T07:05:59;17.90;99.90
40996;DHT22;26723;57.478;12.066;2023-07-29T07:09:07;18.10;99.90
40996;DHT22;26723;57.478;12.066;2023-07-29T07:12:17;17.90;99.90
40996;DHT22;26723;57.478;12.066;2023-07-29T07:15:26;17.90;99.90
40996;DHT22;26723;57.478;12.066;2023-07-29T07:18:34;18.20;99.90
40996;DHT22;26723;57.478;12.066;2023-07-29T07:21:43;18.60;99.90
40996;DHT22;26723;57.478;12.066;2023-07-29T07:24:51;18.60;99.90
40996;DHT22;26723;57.478;12.066;2023-07-29T07:28:01;18.70;99.90
40996;DHT22;26723;57.478;12.066;2023-07-29T07:31:10;18.60;99.90
40996;DHT22;26723;57.478;12.066;2023-07-29T07:34:18;18.70;99.90
40996;DHT22;26723;57.478;12.066;2023-07-29T07:37:26;18.90;99.90
40996;DHT22;26723;57.478;12.066;2023-07-29T07:40:35;18.70;99.90
40996;DHT22;26723;57.478;12.066;2023-07-29T07:43:45;18.70;99.90
40996;DHT22;26723;57.478;12.066;2023-07-29T07:46:53;18.50;99.90
40996;DHT22;26723;57.478;12.066;2023-07-29T07:50:02;18.50;99.90
40996;DHT22;26723;57.478;12.066;2023-07-29T07:53:10;18.40;99.90
40996;DHT22;26723;57.478;12.066;2023-07-29T07:56:19;18.40;99.90
40996;DHT22;26723;57.478;12.066;2023-07-29T07:59:30;18.50;99.90
40996;DHT22;26723;57.478;12.066;2023-07-29T08:02:38;18.60;99.90
40996;DHT22;26723;57.478;12.066;2023-07-29T08:05:47;18.70;99.90
40996;DHT22;26723;57.478;12.066;2023-07-29T08:08:57;18.60;99.90
40996;DHT22;26723;57.478;12.066;2023-07-29T08:12:06;18.60;99.90
40996;DHT22;26723;57.478;12.066;2023-07-29T08:15:16;18.70;99.90
40996;DHT22;26723;57.478;12.066;2023-07-29T08:18:24;18.70;99.90
40996;DHT22;26723;57.478;12.066;2023-07-29T08:21:32;18.70;99.90
40996;DHT22;26723;57.478;12.066;2023-07-29T08:24:41;18.60;99.90
40996;DHT22;26723;57.478;12.066;2023-07-29T08:27:49;18.60;99.90
40996;DHT22;26723;57.478;12.066;2023-07-29T08:30:59;18.70;99.90
40996;DHT22;26723;57.478;12.066;2023-07-29T08:34:08;18.80;99.90
40996;DHT22;26723;57.478;12.066;2023-07-29T08:37:16;18.90;99.90
40996;DHT22;26723;57.478;12.066;2023-07-29T08:40:27;19.00;99.90
40996;DHT22;26723;57.478;12.066;2023-07-29T08:43:44;19.10;99.90
40996;DHT22;26723;57.478;12.066;2023-07-29T08:46:56;18.90;99.90
40996;DHT22;26723;57.478;12.066;2023-07-29T08:50:06;18.90;99.90
40996;DHT22;26723;57.478;12.066;2023-07-29T08:53:15;19.00;99.90
40996;DHT22;26723;57.478;12.066;2023-07-29T08:56:24;19.10;99.90
40996;DHT22;26723;57.478;12.066;2023-07-29T08:59:33;19.00;99.90
40996;DHT22;26723;57.478;12.066;2023-07-29T09:02:43;19.00;99.90
40996;DHT22;26723;57.478;12.066;2023-07-29T09:05:53;19.10;99.90
40996;DHT22;26723;57.478;12.066;2023-07-29T09:09:03;19.00;99.90
40996;DHT22;26723;57.478;12.066;2023-07-29T09:12:12;19.10;99.90
40996;DHT22;26723;57.478;12.066;2023-07-29T09:15:27;19.20;99.90
40996;DHT22;26723;57.478;12.066;2023-07-29T09:18:37;19.20;99.90
40996;DHT22;26723;57.478;12.066;2023-07-29T09:21:47;19.30;99.90
40996;DHT22;26723;57.478;12.066;2023-07-29T09:24:57;19.30;99.90
40996;DHT22;26723;57.478;12.066;2023-07-29T09:28:10;19.50;99.90
40996;DHT22;26723;57.478;12.066;2023-07-29T09:31:20;19.60;99.90
40996;DHT22;26723;57.478;12.066;2023-07-29T09:34:30;19.90;99.90
40996;DHT22;26723;57.478;12.066;2023-07-29T09:37:39;19.90;99.90
40996;DHT22;26723;57.478;12.066;2023-07-29T09:40:47;19.90;99.90
40996;DHT22;26723;57.478;12.066;2023-07-29T09:43:57;19.80;99.90
40996;DHT22;26723;57.478;12.066;2023-07-29T09:47:06;19.70;99.90
40996;DHT22;26723;57.478;12.066;2023-07-29T09:50:16;19.70;99.90
40996;DHT22;26723;57.478;12.066;2023-07-29T09:53:24;19.70;99.90
40996;DHT22;26723;57.478;12.066;2023-07-29T09:56:33;19.70;99.90
40996;DHT22;26723;57.478;12.066;2023-07-29T09:59:54;19.60;99.90
40996;DHT22;26723;57.478;12.066;2023-07-29T10:03:03;19.60;99.90
40996;DHT22;26723;57.478;12.066;2023-07-29T10:06:14;19.80;99.90
40996;DHT22;26723;57.478;12.066;2023-07-29T10:09:23;19.70;99.90
40996;DHT22;26723;57.478;12.066;2023-07-29T10:12:33;19.70;99.90
40996;DHT22;26723;57.478;12.066;2023-07-29T10:15:42;19.70;99.90
40996;DHT22;26723;57.478;12.066;2023-07-29T10:18:53;19.80;99.90
40996;DHT22;26723;57.478;12.066;2023-07-29T10:22:04;19.90;99.90
40996;DHT22;26723;57.478;12.066;2023-07-29T10:25:16;19.90;99.90
40996;DHT22;26723;57.478;12.066;2023-07-29T10:28:26;20.20;99.90
40996;DHT22;26723;57.478;12.066;2023-07-29T10:31:37;20.50;99.90
40996;DHT22;26723;57.478;12.066;2023-07-29T10:34:46;21.20;99.90
40996;DHT22;26723;57.478;12.066;2023-07-29T10:37:57;21.60;99.90
40996;DHT22;26723;57.478;12.066;2023-07-29T10:41:05;21.70;99.90
40996;DHT22;26723;57.478;12.066;2023-07-29T10:44:50;21.30;99.90
40996;DHT22;26723;57.478;12.066;2023-07-29T10:47:59;21.20;99.90
40996;DHT22;26723;57.478;12.066;2023-07-29T10:51:28;20.90;99.90
40996;DHT22;26723;57.478;12.066;2023-07-29T10:54:43;21.00;99.90
40996;DHT22;26723;57.478;12.066;2023-07-29T10:57:52;21.20;99.90
40996;DHT22;26723;57.478;12.066;2023-07-29T11:01:00;21.10;99.90
40996;DHT22;26723;57.478;12.066;2023-07-29T11:04:27;21.10;99.90
40996;DHT22;26723;57.478;12.066;2023-07-29T11:07:43;21.10;99.90
40996;DHT22;26723;57.478;12.066;2023-07-29T11:11:03;21.10;99.90
40996;DHT22;26723;57.478;12.066;2023-07-29T11:14:12;21.30;99.90
40996;DHT22;26723;57.478;12.066;2023-07-29T11:17:20;21.50;99.90
40996;DHT22;26723;57.478;12.066;2023-07-29T11:20:30;21.50;99.90
40996;DHT22;26723;57.478;12.066;2023-07-29T11:23:39;21.50;99.90
40996;DHT22;26723;57.478;12.066;2023-07-29T11:26:49;21.90;99.90
40996;DHT22;26723;57.478;12.066;2023-07-29T11:29:58;21.50;99.90
40996;DHT22;26723;57.478;12.066;2023-07-29T11:33:07;21.50;99.90
40996;DHT22;26723;57.478;12.066;2023-07-29T11:36:18;21.50;99.90
40996;DHT22;26723;57.478;12.066;2023-07-29T11:39:27;21.50;99.90
40996;DHT22;26723;57.478;12.066;2023-07-29T11:42:37;21.20;99.90
40996;DHT22;26723;57.478;12.066;2023-07-29T11:45:46;21.10;99.90
40996;DHT22;26723;57.478;12.066;2023-07-29T11:48:58;21.10;99.90
40996;DHT22;26723;57.478;12.066;2023-07-29T11:52:09;21.40;99.90
40996;DHT22;26723;57.478;12.066;2023-07-29T11:55:18;21.50;99.90
40996;DHT22;26723;57.478;12.066;2023-07-29T11:58:29;21.50;99.90
40996;DHT22;26723;57.478;12.066;2023-07-29T12:01:38;21.40;99.90
40996;DHT22;26723;57.478;12.066;2023-07-29T12:04:48;21.30;99.90
40996;DHT22;26723;57.478;12.066;2023-07-29T12:07:57;21.50;99.90
40996;DHT22;26723;57.478;12.066;2023-07-29T12:11:07;21.40;99.90
40996;DHT22;26723;57.478;12.066;2023-07-29T12:14:18;21.40;99.90
40996;DHT22;26723;57.478;12.066;2023-07-29T12:17:26;21.50;99.90
40996;DHT22;26723;57.478;12.066;2023-07-29T12:20:36;21.30;99.90
40996;DHT22;26723;57.478;12.066;2023-07-29T12:23:45;21.30;99.90
40996;DHT22;26723;57.478;12.066;2023-07-29T12:26:53;21.20;99.90
40996;DHT22;26723;57.478;12.066;2023-07-29T12:30:04;21.40;99.90
40996;DHT22;26723;57.478;12.066;2023-07-29T12:33:29;21.20;99.90
40996;DHT22;26723;57.478;12.066;2023-07-29T12:36:42;21.20;99.90
40996;DHT22;26723;57.478;12.066;2023-07-29T12:39:51;21.30;99.90
40996;DHT22;26723;57.478;12.066;2023-07-29T12:43:00;21.30;99.90
40996;DHT22;26723;57.478;12.066;2023-07-29T12:46:10;21.10;99.90
40996;DHT22;26723;57.478;12.066;2023-07-29T12:49:19;20.90;99.90
40996;DHT22;26723;57.478;12.066;2023-07-29T12:52:27;20.90;99.90
40996;DHT22;26723;57.478;12.066;2023-07-29T12:55:36;21.10;99.90
40996;DHT22;26723;57.478;12.066;2023-07-29T12:58:44;20.90;99.90
40996;DHT22;26723;57.478;12.066;2023-07-29T13:01:54;21.00;99.90
40996;DHT22;26723;57.478;12.066;2023-07-29T13:05:03;21.00;99.90
40996;DHT22;26723;57.478;12.066;2023-07-29T13:08:11;21.20;99.90
40996;DHT22;26723;57.478;12.066;2023-07-29T13:11:20;21.20;99.90
40996;DHT22;26723;57.478;12.066;2023-07-29T13:14:28;21.40;99.90
40996;DHT22;26723;57.478;12.066;2023-07-29T13:17:38;21.20;99.90
40996;DHT22;26723;57.478;12.066;2023-07-29T13:20:47;21.20;99.90
40996;DHT22;26723;57.478;12.066;2023-07-29T13:23:55;21.30;99.90
40996;DHT22;26723;57.478;12.066;2023-07-29T13:27:04;21.50;99.90
40996;DHT22;26723;57.478;12.066;2023-07-29T13:30:13;21.40;99.90
40996;DHT22;26723;57.478;12.066;2023-07-29T13:33:22;21.40;99.90
40996;DHT22;26723;57.478;12.066;2023-07-29T13:36:31;21.40;99.90
40996;DHT22;26723;57.478;12.066;2023-07-29T13:39:39;21.40;99.90
40996;DHT22;26723;57.478;12.066;2023-07-29T13:42:48;21.40;99.90
40996;DHT22;26723;57.478;12.066;2023-07-29T13:45:56;21.30;99.90
40996;DHT22;26723;57.478;12.066;2023-07-29T13:49:06;21.20;99.90
40996;DHT22;26723;57.478;12.066;2023-07-29T13:52:15;21.40;99.90
40996;DHT22;26723;57.478;12.066;2023-07-29T13:55:23;21.20;99.90
40996;DHT22;26723;57.478;12.066;2023-07-29T13:58:32;21.20;99.90
40996;DHT22;26723;57.478;12.066;2023-07-29T14:01:40;21.20;99.90
40996;DHT22;26723;57.478;12.066;2023-07-29T14:04:50;21.10;99.90
40996;DHT22;26723;57.478;12.066;2023-07-29T14:07:59;21.00;99.90
40996;DHT22;26723;57.478;12.066;2023-07-29T14:11:08;20.90;99.90
40996;DHT22;26723;57.478;12.066;2023-07-29T14:14:16;20.90;99.90
40996;DHT22;26723;57.478;12.066;2023-07-29T14:17:28;20.90;99.90
40996;DHT22;26723;57.478;12.066;2023-07-29T14:20:38;20.80;99.90
40996;DHT22;26723;57.478;12.066;2023-07-29T14:23:46;20.80;99.90
40996;DHT22;26723;57.478;12.066;2023-07-29T14:26:55;20.90;99.90
40996;DHT22;26723;57.478;12.066;2023-07-29T14:30:04;21.00;99.90
40996;DHT22;26723;57.478;12.066;2023-07-29T14:33:14;21.10;99.90
40996;DHT22;26723;57.478;12.066;2023-07-29T14:36:23;20.90;99.90
40996;DHT22;26723;57.478;12.066;2023-07-29T14:39:35;20.80;99.90
40996;DHT22;26723;57.478;12.066;2023-07-29T14:42:44;20.70;99.90
40996;DHT22;26723;57.478;12.066;2023-07-29T14:45:52;20.60;99.90
40996;DHT22;26723;57.478;12.066;2023-07-29T14:49:01;20.50;99.90
40996;DHT22;26723;57.478;12.066;2023-07-29T14:52:11;20.50;99.90
40996;DHT22;26723;57.478;12.066;2023-07-29T14:55:20;20.30;99.90
40996;DHT22;26723;57.478;12.066;2023-07-29T14:58:28;20.30;99.90
40996;DHT22;26723;57.478;12.066;2023-07-29T15:01:37;20.20;99.90
40996;DHT22;26723;57.478;12.066;2023-07-29T15:04:45;20.10;99.90
40996;DHT22;26723;57.478;12.066;2023-07-29T15:07:55;20.10;99.90
40996;DHT22;26723;57.478;12.066;2023-07-29T15:11:04;20.00;99.90
40996;DHT22;26723;57.478;12.066;2023-07-29T15:14:13;20.00;99.90
40996;DHT22;26723;57.478;12.066;2023-07-29T15:17:21;20.00;99.90
40996;DHT22;26723;57.478;12.066;2023-07-29T15:20:30;19.90;99.90
40996;DHT22;26723;57.478;12.066;2023-07-29T15:23:40;19.80;99.90
40996;DHT22;26723;57.478;12.066;2023-07-29T15:26:49;19.80;99.90
40996;DHT22;26723;57.478;12.066;2023-07-29T15:29:57;19.70;99.90
40996;DHT22;26723;57.478;12.066;2023-07-29T15:33:06;19.70;99.90
40996;DHT22;26723;57.478;12.066;2023-07-29T15:36:15;19.70;99.90
40996;DHT22;26723;57.478;12.066;2023-07-29T15:39:25;19.70;99.90
40996;DHT22;26723;57.478;12.066;2023-07-29T15:42:33;19.60;99.90
40996;DHT22;26723;57.478;12.066;2023-07-29T15:45:42;19.60;99.90
40996;DHT22;26723;57.478;12.066;2023-07-29T15:48:51;19.50;99.90
40996;DHT22;26723;57.478;12.066;2023-07-29T15:51:59;19.40;99.90
40996;DHT22;26723;57.478;12.066;2023-07-29T15:55:10;19.40;99.90
40996;DHT22;26723;57.478;12.066;2023-07-29T15:58:18;19.40;99.90
40996;DHT22;26723;57.478;12.066;2023-07-29T16:01:26;19.40;99.90
40996;DHT22;26723;57.478;12.066;2023-07-29T16:04:36;19.60;99.90
40996;DHT22;26723;57.478;12.066;2023-07-29T16:07:44;19.50;99.90
40996;DHT22;26723;57.478;12.066;2023-07-29T16:10:54;19.60;99.90
40996;DHT22;26723;57.478;12.066;2023-07-29T16:14:02;19.60;99.90
40996;DHT22;26723;57.478;12.066;2023-07-29T16:17:11;19.50;99.90
40996;DHT22;26723;57.478;12.066;2023-07-29T16:20:20;19.50;99.90
40996;DHT22;26723;57.478;12.066;2023-07-29T16:23:28;19.50;99.90
40996;DHT22;26723;57.478;12.066;2023-07-29T16:26:38;19.50;99.90
40996;DHT22;26723;57.478;12.066;2023-07-29T16:29:47;19.50;99.90
40996;DHT22;26723;57.478;12.066;2023-07-29T16:32:55;19.50;99.90
40996;DHT22;26723;57.478;12.066;2023-07-29T16:36:04;19.50;99.90
40996;DHT22;26723;57.478;12.066;2023-07-29T16:39:13;19.50;99.90
40996;DHT22;26723;57.478;12.066;2023-07-29T16:42:22;19.50;99.90
40996;DHT22;26723;57.478;12.066;2023-07-29T16:45:31;19.40;99.90
40996;DHT22;26723;57.478;12.066;2023-07-29T16:48:39;19.30;99.90
40996;DHT22;26723;57.478;12.066;2023-07-29T16:51:48;19.20;99.90
40996;DHT22;26723;57.478;12.066;2023-07-29T16:54:57;19.20;99.90
40996;DHT22;26723;57.478;12.066;2023-07-29T16:58:07;19.20;99.90
40996;DHT22;26723;57.478;12.066;2023-07-29T17:01:16;19.10;99.90
40996;DHT22;26723;57.478;12.066;2023-07-29T17:04:24;19.10;99.90
40996;DHT22;26723;57.478;12.066;2023-07-29T17:07:33;19.10;99.90
40996;DHT22;26723;57.478;12.066;2023-07-29T17:10:41;19.20;99.90
40996;DHT22;26723;57.478;12.066;2023-07-29T17:13:51;19.10;99.90
40996;DHT22;26723;57.478;12.066;2023-07-29T17:17:00;19.10;99.90
40996;DHT22;26723;57.478;12.066;2023-07-29T17:20:09;19.00;99.90
40996;DHT22;26723;57.478;12.066;2023-07-29T17:23:17;18.90;99.90
40996;DHT22;26723;57.478;12.066;2023-07-29T17:26:26;18.90;99.90
40996;DHT22;26723;57.478;12.066;2023-07-29T17:29:35;18.90;99.90
40996;DHT22;26723;57.478;12.066;2023-07-29T17:32:44;18.80;99.90
40996;DHT22;26723;57.478;12.066;2023-07-29T17:35:53;18.90;99.90
40996;DHT22;26723;57.478;12.066;2023-07-29T17:39:02;18.90;99.90
40996;DHT22;26723;57.478;12.066;2023-07-29T17:42:10;18.90;99.90
40996;DHT22;26723;57.478;12.066;2023-07-29T17:45:20;19.00;99.90
40996;DHT22;26723;57.478;12.066;2023-07-29T17:48:29;19.00;99.90
40996;DHT22;26723;57.478;12.066;2023-07-29T17:51:37;19.00;99.90
40996;DHT22;26723;57.478;12.066;2023-07-29T17:54:46;19.00;99.90
40996;DHT22;26723;57.478;12.066;2023-07-29T17:57:54;19.00;99.90
40996;DHT22;26723;57.478;12.066;2023-07-29T18:01:06;19.00;99.90
40996;DHT22;26723;57.478;12.066;2023-07-29T18:04:15;19.00;99.90
40996;DHT22;26723;57.478;12.066;2023-07-29T18:07:23;19.00;99.90
40996;DHT22;26723;57.478;12.066;2023-07-29T18:10:32;19.00;99.90
40996;DHT22;26723;57.478;12.066;2023-07-29T18:13:40;19.00;99.90
40996;DHT22;26723;57.478;12.066;2023-07-29T18:16:50;19.00;99.90
40996;DHT22;26723;57.478;12.066;2023-07-29T18:19:59;18.90;99.90
40996;DHT22;26723;57.478;12.066;2023-07-29T18:23:08;18.90;99.90
40996;DHT22;26723;57.478;12.066;2023-07-29T18:26:17;18.90;99.90
40996;DHT22;26723;57.478;12.066;2023-07-29T18:29:26;18.80;99.90
40996;DHT22;26723;57.478;12.066;2023-07-29T18:32:35;18.80;99.90
40996;DHT22;26723;57.478;12.066;2023-07-29T18:35:44;18.90;99.90
40996;DHT22;26723;57.478;12.066;2023-07-29T18:38:53;18.90;99.90
40996;DHT22;26723;57.478;12.066;2023-07-29T18:42:02;18.80;99.90
40996;DHT22;26723;57.478;12.066;2023-07-29T18:45:10;18.90;99.90
40996;DHT22;26723;57.478;12.066;2023-07-29T18:48:20;18.80;99.90
40996;DHT22;26723;57.478;12.066;2023-07-29T18:51:30;18.80;99.90
40996;DHT22;26723;57.478;12.066;2023-07-29T18:54:38;18.80;99.90
40996;DHT22;26723;57.478;12.066;2023-07-29T18:57:48;18.80;99.90
40996;DHT22;26723;57.478;12.066;2023-07-29T19:00:56;18.70;99.90
40996;DHT22;26723;57.478;12.066;2023-07-29T19:04:07;18.70;99.90
40996;DHT22;26723;57.478;12.066;2023-07-29T19:07:16;18.60;99.90
40996;DHT22;26723;57.478;12.066;2023-07-29T19:10:26;18.60;99.90
40996;DHT22;26723;57.478;12.066;2023-07-29T19:13:34;18.60;99.90
40996;DHT22;26723;57.478;12.066;2023-07-29T19:16:43;18.60;99.90
40996;DHT22;26723;57.478;12.066;2023-07-29T19:19:53;18.60;99.90
40996;DHT22;26723;57.478;12.066;2023-07-29T19:23:01;18.60;99.90
40996;DHT22;26723;57.478;12.066;2023-07-29T19:26:10;18.60;99.90
40996;DHT22;26723;57.478;12.066;2023-07-29T19:29:18;18.60;99.90
40996;DHT22;26723;57.478;12.066;2023-07-29T19:32:27;18.60;99.90
40996;DHT22;26723;57.478;12.066;2023-07-29T19:35:37;18.50;99.90
40996;DHT22;26723;57.478;12.066;2023-07-29T19:38:45;18.50;99.90